Solana — WCY5602 — position and weather

sailwx.info

Track history (hours):
 
Tides and Currents Weather Stations Pressure Air Temp Water Temp Dewpoint Dewpoint Depression Visibility Wind Speed Wind Dir Waves Ship Positions

Solana

Owner: TAURUS MARINE, SAN FRANCISCO, CA. More information available from US FCC via Universal Licensing System and Coast Guard Vessel Documentation Center.

Last reported at 2016-Jul-31 01:33 UTC. Time now 2016-Jul-31 01:41 UTC.
Position N 47°45' W 122°15'.

Length 21 m; draft 3 m.

Type: Tug. MMSI: 366969740.

Date/timePositionNaut miles runAvg speedWind from/ knotsBaromVisibWave heightAir tempDewpointWater temp
2016-Jul-31 01:33N 47°45' W 122°15'6 5.5
2016-Jul-31 00:33N 47°40' W 122°14'2 0.9
2016-Jul-30 22:33N 47°38' W 122°15'0 0.3
2016-Jul-30 21:33N 47°38' W 122°15'0 0.0
2016-Jul-30 20:33N 47°38' W 122°15'0 0.1
2016-Jul-30 19:33N 47°38' W 122°15'0 0.1
2016-Jul-30 18:30N 47°38' W 122°15'1 1.0
2016-Jul-30 17:33N 47°38' W 122°16'0 0.4
2016-Jul-30 16:31N 47°39' W 122°17'1 0.6
2016-Jul-30 15:33N 47°38' W 122°16'0 0.1
2016-Jul-30 14:33N 47°38' W 122°16'0 0.0
2016-Jul-30 13:33N 47°38' W 122°16'1 0.9
2016-Jul-30 12:32N 47°39' W 122°15'5 4.8
2016-Jul-30 11:33N 47°43' W 122°16'5 5.1
2016-Jul-30 10:33N 47°39' W 122°20'0 0.4
2016-Jul-30 09:33N 47°39' W 122°20'0 0.0
2016-Jul-30 08:33N 47°39' W 122°20'0 0.0
2016-Jul-30 07:33N 47°39' W 122°20'0 0.0
2016-Jul-30 06:33N 47°39' W 122°20'0 0.0
2016-Jul-30 05:33N 47°39' W 122°20'0 0.0
2016-Jul-30 04:33N 47°39' W 122°20'0 0.0
2016-Jul-30 03:33N 47°39' W 122°20'0 0.0
2016-Jul-30 02:33N 47°39' W 122°20'0 0.0
2016-Jul-30 01:33N 47°39' W 122°20'0 0.0
2016-Jul-30 00:33N 47°39' W 122°20'0 0.0
2016-Jul-29 23:33N 47°39' W 122°20'0 0.0
2016-Jul-29 22:33N 47°39' W 122°20'0 0.0
2016-Jul-29 21:33N 47°39' W 122°20'0 0.0
2016-Jul-29 20:34N 47°39' W 122°20'0 0.0
2016-Jul-29 19:33N 47°39' W 122°20'0 0.0
2016-Jul-29 18:33N 47°39' W 122°20'0 0.0
2016-Jul-29 17:33N 47°39' W 122°20'0 0.0
2016-Jul-29 16:33N 47°39' W 122°20'0 0.0
2016-Jul-29 15:33N 47°39' W 122°20'0 0.0
2016-Jul-29 14:33N 47°39' W 122°20'0 0.0
2016-Jul-29 13:34N 47°39' W 122°20'0 0.0
2016-Jul-29 12:33N 47°39' W 122°20'0 0.0
2016-Jul-29 11:33N 47°39' W 122°20'0 0.0
2016-Jul-29 10:33N 47°39' W 122°20'0 0.0
2016-Jul-29 09:33N 47°39' W 122°20'0 0.0
2016-Jul-29 08:33N 47°39' W 122°20'0 0.0
2016-Jul-29 07:33N 47°39' W 122°20'0 0.0
2016-Jul-29 06:33N 47°39' W 122°20'0 0.0
2016-Jul-29 05:33N 47°39' W 122°20'0 0.0
2016-Jul-29 04:33N 47°39' W 122°20'0 0.0
2016-Jul-29 03:33N 47°39' W 122°20'0 0.0
2016-Jul-29 02:33N 47°39' W 122°20'0 0.0
2016-Jul-29 01:33N 47°39' W 122°20'3 3.1
2016-Jul-29 00:29N 47°39' W 122°16'4 4.5
2016-Jul-28 23:33N 47°43' W 122°16'3 2.6
2016-Jul-28 22:34N 47°45' W 122°15'0 0.0
2016-Jul-28 21:31N 47°45' W 122°15'6 6.3
2016-Jul-28 20:33N 47°39' W 122°16'1 0.9
2016-Jul-28 19:31N 47°39' W 122°17'0 0.0
2016-Jul-28 18:11N 47°39' W 122°16'1 0.5
2016-Jul-28 16:33N 47°38' W 122°15'1 0.8
2016-Jul-28 15:30N 47°39' W 122°17'0 0.2
2016-Jul-28 14:28N 47°39' W 122°17'3 2.7
2016-Jul-28 13:32N 47°39' W 122°20'0 0.0
2016-Jul-28 12:33N 47°39' W 122°20'0 0.0
2016-Jul-28 11:33N 47°39' W 122°20'0 0.0
2016-Jul-28 10:33N 47°39' W 122°20'0 0.0
2016-Jul-28 09:34N 47°39' W 122°20'0 0.0
2016-Jul-28 08:33N 47°39' W 122°20'0 0.0
2016-Jul-28 07:33N 47°39' W 122°20'0 0.0
2016-Jul-28 06:33N 47°39' W 122°20'0 0.0
2016-Jul-28 05:33N 47°39' W 122°20'0 0.0
2016-Jul-28 04:33N 47°39' W 122°20'0 0.0
2016-Jul-28 03:32N 47°39' W 122°20'0 0.0
2016-Jul-28 02:33N 47°39' W 122°20'0 0.0
2016-Jul-28 01:33N 47°39' W 122°20'0 0.0
2016-Jul-28 00:33N 47°39' W 122°20'0 0.0
2016-Jul-27 23:33N 47°39' W 122°20'0 0.0
2016-Jul-27 22:33N 47°39' W 122°20'0 0.0
2016-Jul-27 21:33N 47°39' W 122°20'0 0.0
2016-Jul-27 20:33N 47°39' W 122°20'3 2.6
2016-Jul-27 19:33N 47°39' W 122°17'1 1.2
2016-Jul-27 18:33N 47°38' W 122°15'1 0.7
2016-Jul-27 17:32N 47°38' W 122°16'0 0.0
2016-Jul-27 16:32N 47°38' W 122°16'1 0.7
2016-Jul-27 15:32N 47°39' W 122°17'2 2.4
2016-Jul-27 14:33N 47°39' W 122°20'0 0.0
2016-Jul-27 13:33N 47°39' W 122°20'0 0.0
2016-Jul-27 12:33N 47°39' W 122°20'0 0.0
2016-Jul-27 11:33N 47°39' W 122°20'0 0.0
2016-Jul-27 10:33N 47°39' W 122°20'0 0.0
2016-Jul-27 09:33N 47°39' W 122°20'0 0.0
2016-Jul-27 08:33N 47°39' W 122°20'0 0.0
2016-Jul-27 07:33N 47°39' W 122°20'0 0.0
2016-Jul-27 06:33N 47°39' W 122°20'0 0.0
2016-Jul-27 05:33N 47°39' W 122°20'0 0.0
2016-Jul-27 04:33N 47°39' W 122°20'0 0.0
2016-Jul-27 03:33N 47°39' W 122°20'0 0.0
2016-Jul-27 02:33N 47°39' W 122°20'0 0.0
2016-Jul-27 01:33N 47°39' W 122°20'0 0.0
2016-Jul-27 00:33N 47°39' W 122°20'0 0.0
2016-Jul-26 23:33N 47°39' W 122°20'1 0.8
2016-Jul-26 22:33N 47°39' W 122°19'3 1.3
2016-Jul-26 20:32N 47°38' W 122°16'1 0.5
2016-Jul-26 19:08N 47°38' W 122°15'1 1.4
2016-Jul-26 18:33N 47°38' W 122°16'0 0.4
2016-Jul-26 17:33N 47°38' W 122°15'1 0.8
2016-Jul-26 16:32N 47°39' W 122°17'0 0.0
2016-Jul-26 15:32N 47°39' W 122°17'0 0.0
2016-Jul-26 14:30N 47°39' W 122°17'0 0.0
2016-Jul-26 13:34N 47°39' W 122°17'0 0.1
2016-Jul-26 12:33N 47°39' W 122°17'3 2.7
2016-Jul-26 11:33N 47°39' W 122°20'0 0.0
2016-Jul-26 10:34N 47°39' W 122°20'0 0.0
2016-Jul-26 09:34N 47°39' W 122°20'0 0.0
2016-Jul-26 08:34N 47°39' W 122°20'0 0.0
2016-Jul-26 07:34N 47°39' W 122°20'0 0.0
2016-Jul-26 06:33N 47°39' W 122°20'0 0.0
2016-Jul-26 05:34N 47°39' W 122°20'0 0.0
2016-Jul-26 04:34N 47°39' W 122°20'0 0.0
2016-Jul-26 03:34N 47°39' W 122°20'3 2.6
2016-Jul-26 02:33N 47°40' W 122°24'0 0.3
2016-Jul-26 01:33N 47°40' W 122°24'1 0.5
2016-Jul-26 00:33N 47°40' W 122°23'0 0.0
2016-Jul-25 23:33N 47°40' W 122°23'2 2.5
2016-Jul-25 22:34N 47°39' W 122°20'3 2.1
2016-Jul-25 21:21N 47°39' W 122°17'0 0.1
2016-Jul-25 19:33N 47°39' W 122°17'0 0.0
2016-Jul-25 18:26N 47°39' W 122°17'0 0.3
2016-Jul-25 17:32N 47°39' W 122°17'3 2.6
2016-Jul-25 16:34N 47°39' W 122°20'0 0.0
2016-Jul-25 15:33N 47°39' W 122°20'0 0.0
2016-Jul-25 14:33N 47°39' W 122°20'0 0.0
2016-Jul-25 13:33N 47°39' W 122°20'0 0.0
2016-Jul-25 12:33N 47°39' W 122°20'0 0.0
2016-Jul-25 11:33N 47°39' W 122°20'0 0.0
2016-Jul-25 10:33N 47°39' W 122°20'0 0.0
2016-Jul-25 09:33N 47°39' W 122°20'0 0.0
2016-Jul-25 08:33N 47°39' W 122°20'0 0.0
2016-Jul-25 07:33N 47°39' W 122°20'0 0.0
2016-Jul-25 06:33N 47°39' W 122°20'0 0.0
2016-Jul-25 05:33N 47°39' W 122°20'0 0.0
2016-Jul-25 04:33N 47°39' W 122°20'0 0.0
2016-Jul-25 03:33N 47°39' W 122°20'0 0.0
2016-Jul-25 02:33N 47°39' W 122°20'0 0.0
2016-Jul-25 01:33N 47°39' W 122°20'0 0.0
2016-Jul-25 00:33N 47°39' W 122°20'0 0.0
2016-Jul-24 23:33N 47°39' W 122°20'0 0.0
2016-Jul-24 22:33N 47°39' W 122°20'0 0.0
2016-Jul-24 21:33N 47°39' W 122°20'0 0.0
2016-Jul-24 20:33N 47°39' W 122°20'0 0.0
2016-Jul-24 19:33N 47°39' W 122°20'0 0.0
2016-Jul-24 18:33N 47°39' W 122°20'0 0.0
2016-Jul-24 17:33N 47°39' W 122°20'0 0.0
2016-Jul-24 16:33N 47°39' W 122°20'0 0.0
2016-Jul-24 15:33N 47°39' W 122°20'0 0.0
2016-Jul-24 14:33N 47°39' W 122°20'0 0.0
2016-Jul-24 13:33N 47°39' W 122°20'0 0.0
2016-Jul-24 12:33N 47°39' W 122°20'0 0.0
2016-Jul-24 11:33N 47°39' W 122°20'0 0.0
2016-Jul-24 10:33N 47°39' W 122°20'0 0.0
2016-Jul-24 09:33N 47°39' W 122°20'0 0.0
2016-Jul-24 08:33N 47°39' W 122°20'0 0.0
2016-Jul-24 07:33N 47°39' W 122°20'0 0.0
2016-Jul-24 06:33N 47°39' W 122°20'0 0.0
2016-Jul-24 05:33N 47°39' W 122°20'0 0.0
2016-Jul-24 04:33N 47°39' W 122°20'0 0.0
2016-Jul-24 03:33N 47°39' W 122°20'0 0.0
2016-Jul-24 02:33N 47°39' W 122°20'0 0.0
2016-Jul-24 01:33N 47°39' W 122°20'0 0.0
2016-Jul-24 00:33N 47°39' W 122°20'0 0.0
2016-Jul-23 23:33N 47°39' W 122°20'0 0.0
2016-Jul-23 22:33N 47°39' W 122°20'0 0.0
2016-Jul-23 21:33N 47°39' W 122°20'0 0.0
2016-Jul-23 20:33N 47°39' W 122°20'0 0.0
2016-Jul-23 19:33N 47°39' W 122°20'0 0.0
2016-Jul-23 18:34N 47°39' W 122°20'0 0.0
2016-Jul-23 17:33N 47°39' W 122°20'0 0.0
2016-Jul-23 16:33N 47°39' W 122°20'0 0.0
2016-Jul-23 15:33N 47°39' W 122°20'0 0.0
2016-Jul-23 14:33N 47°39' W 122°20'0 0.0
2016-Jul-23 13:33N 47°39' W 122°20'0 0.0
2016-Jul-23 12:33N 47°39' W 122°20'0 0.0
2016-Jul-23 11:33N 47°39' W 122°20'0 0.0
2016-Jul-23 10:33N 47°39' W 122°20'0 0.0
2016-Jul-23 09:33N 47°39' W 122°20'0 0.0
2016-Jul-23 08:33N 47°39' W 122°20'0 0.0
2016-Jul-23 07:33N 47°39' W 122°20'0 0.0
2016-Jul-23 06:33N 47°39' W 122°20'0 0.0
2016-Jul-23 04:34N 47°39' W 122°20'0 0.0
2016-Jul-23 03:34N 47°39' W 122°20'0 0.0
2016-Jul-23 02:33N 47°39' W 122°20'0 0.0
2016-Jul-23 01:33N 47°39' W 122°20'0 0.0
2016-Jul-23 00:33N 47°39' W 122°20'0 0.0
2016-Jul-22 23:33N 47°39' W 122°20'0 0.0
2016-Jul-22 22:33N 47°39' W 122°20'2 1.5
2016-Jul-22 21:33N 47°39' W 122°18'1 1.0
2016-Jul-22 20:32N 47°39' W 122°17'0 0.3
2016-Jul-22 19:32N 47°39' W 122°16'0 0.0
2016-Jul-22 18:03N 47°39' W 122°16'0 0.0
2016-Jul-22 17:33N 47°39' W 122°16'0 0.1
2016-Jul-22 16:31N 47°38' W 122°16'0 0.1
2016-Jul-22 15:23N 47°38' W 122°16'1 1.1
2016-Jul-22 14:33N 47°39' W 122°15'1 0.8
2016-Jul-22 13:28N 47°38' W 122°16'0 0.3
2016-Jul-22 12:31N 47°39' W 122°17'3 2.7
2016-Jul-22 11:33N 47°39' W 122°20'0 0.0
2016-Jul-22 10:33N 47°39' W 122°20'0 0.0
2016-Jul-22 09:33N 47°39' W 122°20'0 0.0
2016-Jul-22 08:33N 47°39' W 122°20'0 0.0
2016-Jul-22 07:33N 47°39' W 122°20'0 0.0
2016-Jul-22 05:33N 47°39' W 122°20'0 0.0
2016-Jul-22 04:33N 47°39' W 122°20'0 0.0
2016-Jul-22 03:33N 47°39' W 122°20'0 0.0
2016-Jul-22 02:33N 47°39' W 122°20'0 0.0
2016-Jul-22 01:33N 47°39' W 122°20'0 0.0
2016-Jul-22 00:33N 47°39' W 122°20'0 0.0
2016-Jul-21 23:33N 47°39' W 122°20'0 0.0
2016-Jul-21 22:33N 47°39' W 122°20'0 0.0
2016-Jul-21 21:34N 47°39' W 122°20'0 0.0
2016-Jul-21 20:33N 47°39' W 122°20'0 0.0
2016-Jul-21 19:33N 47°39' W 122°20'0 0.0
2016-Jul-21 18:33N 47°39' W 122°20'0 0.0
2016-Jul-21 17:33N 47°39' W 122°20'0 0.0
2016-Jul-21 16:33N 47°39' W 122°20'0 0.0
2016-Jul-21 15:33N 47°39' W 122°20'0 0.0
2016-Jul-21 14:33N 47°39' W 122°20'0 0.0
2016-Jul-21 13:33N 47°39' W 122°20'0 0.0
2016-Jul-21 12:33N 47°39' W 122°20'0 0.0
2016-Jul-21 11:33N 47°39' W 122°20'0 0.0
2016-Jul-21 10:33N 47°39' W 122°20'0 0.0
2016-Jul-21 09:33N 47°39' W 122°20'0 0.0
2016-Jul-21 08:33N 47°39' W 122°20'0 0.0
2016-Jul-21 07:33N 47°39' W 122°20'0 0.0
2016-Jul-21 06:33N 47°39' W 122°20'0 0.0
2016-Jul-21 05:33N 47°39' W 122°20'0 0.0
2016-Jul-21 04:33N 47°39' W 122°20'0 0.0
2016-Jul-21 03:33N 47°39' W 122°20'3 2.6
2016-Jul-21 02:33N 47°40' W 122°24'1 0.5
2016-Jul-21 01:33N 47°40' W 122°24'  
Track history (hours):
 
Tides and Currents Weather Stations Pressure Air Temp Water Temp Dewpoint Dewpoint Depression Visibility Wind Speed Wind Dir Waves Ship Positions

Solana

Owner: TAURUS MARINE, SAN FRANCISCO, CA. More information available from US FCC via Universal Licensing System and Coast Guard Vessel Documentation Center.

Last reported at 2016-Jul-31 01:33 UTC. Time now 2016-Jul-31 01:41 UTC.
Position N 47°45' W 122°15'.

Length 21 m; draft 3 m.

Type: Tug. MMSI: 366969740.

Date/timePositionNaut miles runAvg speedWind from/ knotsBaromVisibWave heightAir tempDewpointWater temp
2016-Jul-31 01:33N 47°45' W 122°15'6 5.5
2016-Jul-31 00:33N 47°40' W 122°14'2 0.9
2016-Jul-30 22:33N 47°38' W 122°15'0 0.3
2016-Jul-30 21:33N 47°38' W 122°15'0 0.0
2016-Jul-30 20:33N 47°38' W 122°15'0 0.1
2016-Jul-30 19:33N 47°38' W 122°15'0 0.1
2016-Jul-30 18:30N 47°38' W 122°15'1 1.0
2016-Jul-30 17:33N 47°38' W 122°16'0 0.4
2016-Jul-30 16:31N 47°39' W 122°17'1 0.6
2016-Jul-30 15:33N 47°38' W 122°16'0 0.1
2016-Jul-30 14:33N 47°38' W 122°16'0 0.0
2016-Jul-30 13:33N 47°38' W 122°16'1 0.9
2016-Jul-30 12:32N 47°39' W 122°15'5 4.8
2016-Jul-30 11:33N 47°43' W 122°16'5 5.1
2016-Jul-30 10:33N 47°39' W 122°20'0 0.4
2016-Jul-30 09:33N 47°39' W 122°20'0 0.0
2016-Jul-30 08:33N 47°39' W 122°20'0 0.0
2016-Jul-30 07:33N 47°39' W 122°20'0 0.0
2016-Jul-30 06:33N 47°39' W 122°20'0 0.0
2016-Jul-30 05:33N 47°39' W 122°20'0 0.0
2016-Jul-30 04:33N 47°39' W 122°20'0 0.0
2016-Jul-30 03:33N 47°39' W 122°20'0 0.0
2016-Jul-30 02:33N 47°39' W 122°20'0 0.0
2016-Jul-30 01:33N 47°39' W 122°20'0 0.0
2016-Jul-30 00:33N 47°39' W 122°20'0 0.0
2016-Jul-29 23:33N 47°39' W 122°20'0 0.0
2016-Jul-29 22:33N 47°39' W 122°20'0 0.0
2016-Jul-29 21:33N 47°39' W 122°20'0 0.0
2016-Jul-29 20:34N 47°39' W 122°20'0 0.0
2016-Jul-29 19:33N 47°39' W 122°20'0 0.0
2016-Jul-29 18:33N 47°39' W 122°20'0 0.0
2016-Jul-29 17:33N 47°39' W 122°20'0 0.0
2016-Jul-29 16:33N 47°39' W 122°20'0 0.0
2016-Jul-29 15:33N 47°39' W 122°20'0 0.0
2016-Jul-29 14:33N 47°39' W 122°20'0 0.0
2016-Jul-29 13:34N 47°39' W 122°20'0 0.0
2016-Jul-29 12:33N 47°39' W 122°20'0 0.0
2016-Jul-29 11:33N 47°39' W 122°20'0 0.0
2016-Jul-29 10:33N 47°39' W 122°20'0 0.0
2016-Jul-29 09:33N 47°39' W 122°20'0 0.0
2016-Jul-29 08:33N 47°39' W 122°20'0 0.0
2016-Jul-29 07:33N 47°39' W 122°20'0 0.0
2016-Jul-29 06:33N 47°39' W 122°20'0 0.0
2016-Jul-29 05:33N 47°39' W 122°20'0 0.0
2016-Jul-29 04:33N 47°39' W 122°20'0 0.0
2016-Jul-29 03:33N 47°39' W 122°20'0 0.0
2016-Jul-29 02:33N 47°39' W 122°20'0 0.0
2016-Jul-29 01:33N 47°39' W 122°20'3 3.1
2016-Jul-29 00:29N 47°39' W 122°16'4 4.5
2016-Jul-28 23:33N 47°43' W 122°16'3 2.6
2016-Jul-28 22:34N 47°45' W 122°15'0 0.0
2016-Jul-28 21:31N 47°45' W 122°15'6 6.3
2016-Jul-28 20:33N 47°39' W 122°16'1 0.9
2016-Jul-28 19:31N 47°39' W 122°17'0 0.0
2016-Jul-28 18:11N 47°39' W 122°16'1 0.5
2016-Jul-28 16:33N 47°38' W 122°15'1 0.8
2016-Jul-28 15:30N 47°39' W 122°17'0 0.2
2016-Jul-28 14:28N 47°39' W 122°17'3 2.7
2016-Jul-28 13:32N 47°39' W 122°20'0 0.0
2016-Jul-28 12:33N 47°39' W 122°20'0 0.0
2016-Jul-28 11:33N 47°39' W 122°20'0 0.0
2016-Jul-28 10:33N 47°39' W 122°20'0 0.0
2016-Jul-28 09:34N 47°39' W 122°20'0 0.0
2016-Jul-28 08:33N 47°39' W 122°20'0 0.0
2016-Jul-28 07:33N 47°39' W 122°20'0 0.0
2016-Jul-28 06:33N 47°39' W 122°20'0 0.0
2016-Jul-28 05:33N 47°39' W 122°20'0 0.0
2016-Jul-28 04:33N 47°39' W 122°20'0 0.0
2016-Jul-28 03:32N 47°39' W 122°20'0 0.0
2016-Jul-28 02:33N 47°39' W 122°20'0 0.0
2016-Jul-28 01:33N 47°39' W 122°20'0 0.0
2016-Jul-28 00:33N 47°39' W 122°20'0 0.0
2016-Jul-27 23:33N 47°39' W 122°20'0 0.0
2016-Jul-27 22:33N 47°39' W 122°20'0 0.0
2016-Jul-27 21:33N 47°39' W 122°20'0 0.0
2016-Jul-27 20:33N 47°39' W 122°20'3 2.6
2016-Jul-27 19:33N 47°39' W 122°17'1 1.2
2016-Jul-27 18:33N 47°38' W 122°15'1 0.7
2016-Jul-27 17:32N 47°38' W 122°16'0 0.0
2016-Jul-27 16:32N 47°38' W 122°16'1 0.7
2016-Jul-27 15:32N 47°39' W 122°17'2 2.4
2016-Jul-27 14:33N 47°39' W 122°20'0 0.0
2016-Jul-27 13:33N 47°39' W 122°20'0 0.0
2016-Jul-27 12:33N 47°39' W 122°20'0 0.0
2016-Jul-27 11:33N 47°39' W 122°20'0 0.0
2016-Jul-27 10:33N 47°39' W 122°20'0 0.0
2016-Jul-27 09:33N 47°39' W 122°20'0 0.0
2016-Jul-27 08:33N 47°39' W 122°20'0 0.0
2016-Jul-27 07:33N 47°39' W 122°20'0 0.0
2016-Jul-27 06:33N 47°39' W 122°20'0 0.0
2016-Jul-27 05:33N 47°39' W 122°20'0 0.0
2016-Jul-27 04:33N 47°39' W 122°20'0 0.0
2016-Jul-27 03:33N 47°39' W 122°20'0 0.0
2016-Jul-27 02:33N 47°39' W 122°20'0 0.0
2016-Jul-27 01:33N 47°39' W 122°20'0 0.0
2016-Jul-27 00:33N 47°39' W 122°20'0 0.0
2016-Jul-26 23:33N 47°39' W 122°20'1 0.8
2016-Jul-26 22:33N 47°39' W 122°19'3 1.3
2016-Jul-26 20:32N 47°38' W 122°16'1 0.5
2016-Jul-26 19:08N 47°38' W 122°15'1 1.4
2016-Jul-26 18:33N 47°38' W 122°16'0 0.4
2016-Jul-26 17:33N 47°38' W 122°15'1 0.8
2016-Jul-26 16:32N 47°39' W 122°17'0 0.0
2016-Jul-26 15:32N 47°39' W 122°17'0 0.0
2016-Jul-26 14:30N 47°39' W 122°17'0 0.0
2016-Jul-26 13:34N 47°39' W 122°17'0 0.1
2016-Jul-26 12:33N 47°39' W 122°17'3 2.7
2016-Jul-26 11:33N 47°39' W 122°20'0 0.0
2016-Jul-26 10:34N 47°39' W 122°20'0 0.0
2016-Jul-26 09:34N 47°39' W 122°20'0 0.0
2016-Jul-26 08:34N 47°39' W 122°20'0 0.0
2016-Jul-26 07:34N 47°39' W 122°20'0 0.0
2016-Jul-26 06:33N 47°39' W 122°20'0 0.0
2016-Jul-26 05:34N 47°39' W 122°20'0 0.0
2016-Jul-26 04:34N 47°39' W 122°20'0 0.0
2016-Jul-26 03:34N 47°39' W 122°20'3 2.6
2016-Jul-26 02:33N 47°40' W 122°24'0 0.3
2016-Jul-26 01:33N 47°40' W 122°24'1 0.5
2016-Jul-26 00:33N 47°40' W 122°23'0 0.0
2016-Jul-25 23:33N 47°40' W 122°23'2 2.5
2016-Jul-25 22:34N 47°39' W 122°20'3 2.1
2016-Jul-25 21:21N 47°39' W 122°17'0 0.1
2016-Jul-25 19:33N 47°39' W 122°17'0 0.0
2016-Jul-25 18:26N 47°39' W 122°17'0 0.3
2016-Jul-25 17:32N 47°39' W 122°17'3 2.6
2016-Jul-25 16:34N 47°39' W 122°20'0 0.0
2016-Jul-25 15:33N 47°39' W 122°20'0 0.0
2016-Jul-25 14:33N 47°39' W 122°20'0 0.0
2016-Jul-25 13:33N 47°39' W 122°20'0 0.0
2016-Jul-25 12:33N 47°39' W 122°20'0 0.0
2016-Jul-25 11:33N 47°39' W 122°20'0 0.0
2016-Jul-25 10:33N 47°39' W 122°20'0 0.0
2016-Jul-25 09:33N 47°39' W 122°20'0 0.0
2016-Jul-25 08:33N 47°39' W 122°20'0 0.0
2016-Jul-25 07:33N 47°39' W 122°20'0 0.0
2016-Jul-25 06:33N 47°39' W 122°20'0 0.0
2016-Jul-25 05:33N 47°39' W 122°20'0 0.0
2016-Jul-25 04:33N 47°39' W 122°20'0 0.0
2016-Jul-25 03:33N 47°39' W 122°20'0 0.0
2016-Jul-25 02:33N 47°39' W 122°20'0 0.0
2016-Jul-25 01:33N 47°39' W 122°20'0 0.0
2016-Jul-25 00:33N 47°39' W 122°20'0 0.0
2016-Jul-24 23:33N 47°39' W 122°20'0 0.0
2016-Jul-24 22:33N 47°39' W 122°20'0 0.0
2016-Jul-24 21:33N 47°39' W 122°20'0 0.0
2016-Jul-24 20:33N 47°39' W 122°20'0 0.0
2016-Jul-24 19:33N 47°39' W 122°20'0 0.0
2016-Jul-24 18:33N 47°39' W 122°20'0 0.0
2016-Jul-24 17:33N 47°39' W 122°20'0 0.0
2016-Jul-24 16:33N 47°39' W 122°20'0 0.0
2016-Jul-24 15:33N 47°39' W 122°20'0 0.0
2016-Jul-24 14:33N 47°39' W 122°20'0 0.0
2016-Jul-24 13:33N 47°39' W 122°20'0 0.0
2016-Jul-24 12:33N 47°39' W 122°20'0 0.0
2016-Jul-24 11:33N 47°39' W 122°20'0 0.0
2016-Jul-24 10:33N 47°39' W 122°20'0 0.0
2016-Jul-24 09:33N 47°39' W 122°20'0 0.0
2016-Jul-24 08:33N 47°39' W 122°20'0 0.0
2016-Jul-24 07:33N 47°39' W 122°20'0 0.0
2016-Jul-24 06:33N 47°39' W 122°20'0 0.0
2016-Jul-24 05:33N 47°39' W 122°20'0 0.0
2016-Jul-24 04:33N 47°39' W 122°20'0 0.0
2016-Jul-24 03:33N 47°39' W 122°20'0 0.0
2016-Jul-24 02:33N 47°39' W 122°20'0 0.0
2016-Jul-24 01:33N 47°39' W 122°20'0 0.0
2016-Jul-24 00:33N 47°39' W 122°20'0 0.0
2016-Jul-23 23:33N 47°39' W 122°20'0 0.0
2016-Jul-23 22:33N 47°39' W 122°20'0 0.0
2016-Jul-23 21:33N 47°39' W 122°20'0 0.0
2016-Jul-23 20:33N 47°39' W 122°20'0 0.0
2016-Jul-23 19:33N 47°39' W 122°20'0 0.0
2016-Jul-23 18:34N 47°39' W 122°20'0 0.0
2016-Jul-23 17:33N 47°39' W 122°20'0 0.0
2016-Jul-23 16:33N 47°39' W 122°20'0 0.0
2016-Jul-23 15:33N 47°39' W 122°20'0 0.0
2016-Jul-23 14:33N 47°39' W 122°20'0 0.0
2016-Jul-23 13:33N 47°39' W 122°20'0 0.0
2016-Jul-23 12:33N 47°39' W 122°20'0 0.0
2016-Jul-23 11:33N 47°39' W 122°20'0 0.0
2016-Jul-23 10:33N 47°39' W 122°20'0 0.0
2016-Jul-23 09:33N 47°39' W 122°20'0 0.0
2016-Jul-23 08:33N 47°39' W 122°20'0 0.0
2016-Jul-23 07:33N 47°39' W 122°20'0 0.0
2016-Jul-23 06:33N 47°39' W 122°20'0 0.0
2016-Jul-23 04:34N 47°39' W 122°20'0 0.0
2016-Jul-23 03:34N 47°39' W 122°20'0 0.0
2016-Jul-23 02:33N 47°39' W 122°20'0 0.0
2016-Jul-23 01:33N 47°39' W 122°20'0 0.0
2016-Jul-23 00:33N 47°39' W 122°20'0 0.0
2016-Jul-22 23:33N 47°39' W 122°20'0 0.0
2016-Jul-22 22:33N 47°39' W 122°20'2 1.5
2016-Jul-22 21:33N 47°39' W 122°18'1 1.0
2016-Jul-22 20:32N 47°39' W 122°17'0 0.3
2016-Jul-22 19:32N 47°39' W 122°16'0 0.0
2016-Jul-22 18:03N 47°39' W 122°16'0 0.0
2016-Jul-22 17:33N 47°39' W 122°16'0 0.1
2016-Jul-22 16:31N 47°38' W 122°16'0 0.1
2016-Jul-22 15:23N 47°38' W 122°16'1 1.1
2016-Jul-22 14:33N 47°39' W 122°15'1 0.8
2016-Jul-22 13:28N 47°38' W 122°16'0 0.3
2016-Jul-22 12:31N 47°39' W 122°17'3 2.7
2016-Jul-22 11:33N 47°39' W 122°20'0 0.0
2016-Jul-22 10:33N 47°39' W 122°20'0 0.0
2016-Jul-22 09:33N 47°39' W 122°20'0 0.0
2016-Jul-22 08:33N 47°39' W 122°20'0 0.0
2016-Jul-22 07:33N 47°39' W 122°20'0 0.0
2016-Jul-22 05:33N 47°39' W 122°20'0 0.0
2016-Jul-22 04:33N 47°39' W 122°20'0 0.0
2016-Jul-22 03:33N 47°39' W 122°20'0 0.0
2016-Jul-22 02:33N 47°39' W 122°20'0 0.0
2016-Jul-22 01:33N 47°39' W 122°20'0 0.0
2016-Jul-22 00:33N 47°39' W 122°20'0 0.0
2016-Jul-21 23:33N 47°39' W 122°20'0 0.0
2016-Jul-21 22:33N 47°39' W 122°20'0 0.0
2016-Jul-21 21:34N 47°39' W 122°20'0 0.0
2016-Jul-21 20:33N 47°39' W 122°20'0 0.0
2016-Jul-21 19:33N 47°39' W 122°20'0 0.0
2016-Jul-21 18:33N 47°39' W 122°20'0 0.0
2016-Jul-21 17:33N 47°39' W 122°20'0 0.0
2016-Jul-21 16:33N 47°39' W 122°20'0 0.0
2016-Jul-21 15:33N 47°39' W 122°20'0 0.0
2016-Jul-21 14:33N 47°39' W 122°20'0 0.0
2016-Jul-21 13:33N 47°39' W 122°20'0 0.0
2016-Jul-21 12:33N 47°39' W 122°20'0 0.0
2016-Jul-21 11:33N 47°39' W 122°20'0 0.0
2016-Jul-21 10:33N 47°39' W 122°20'0 0.0
2016-Jul-21 09:33N 47°39' W 122°20'0 0.0
2016-Jul-21 08:33N 47°39' W 122°20'0 0.0
2016-Jul-21 07:33N 47°39' W 122°20'0 0.0
2016-Jul-21 06:33N 47°39' W 122°20'0 0.0
2016-Jul-21 05:33N 47°39' W 122°20'0 0.0
2016-Jul-21 04:33N 47°39' W 122°20'0 0.0
2016-Jul-21 03:33N 47°39' W 122°20'3 2.6
2016-Jul-21 02:33N 47°40' W 122°24'1 0.5
2016-Jul-21 01:33N 47°40' W 122°24'  

Dump ship's entire track history